Terminal Aerodrome Forecast
Issued by NWS

Home | Current Version | Previous Version | Text Only | Print | Product List | Glossary Off
Versions: 1 2 3 4 5 6 7 8 9 10 11 12 13 14 15 16 17

447
FTUS43 KABR 152339
TAFPIR
TAF
KPIR 152339Z 1600/1624 25010KT P6SM BKN250
     FM161200 31010KT P6SM BKN250
     FM162200 36009KT P6SM OVC040=

USA.gov is the U.S. government's official web portal to all federal, state and local government web resources and services.